createdAt,value
2022-07-27T00:02:16.939Z,108
2022-07-27T00:13:37.498Z,102
2022-07-27T00:19:36.142Z,94
2022-07-27T00:25:17.023Z,94
2022-07-27T00:30:58.242Z,110
2022-07-27T00:36:38.578Z,132
2022-07-27T00:47:59.059Z,96
2022-07-27T00:53:39.434Z,104
2022-07-27T00:59:19.780Z,100
2022-07-27T01:05:01.366Z,106
2022-07-27T01:10:44.508Z,100
2022-07-27T01:16:25.502Z,104
2022-07-27T01:27:45.771Z,104
2022-07-27T01:33:26.651Z,100
2022-07-27T01:39:06.771Z,96
2022-07-27T01:56:07.349Z,90
2022-07-27T02:01:48.347Z,104
2022-07-27T02:07:28.692Z,94
2022-07-27T02:13:23.714Z,100
2022-07-27T02:19:09.125Z,104
2022-07-27T02:24:51.593Z,98
2022-07-27T02:36:12.040Z,94
2022-07-27T02:47:32.940Z,102
2022-07-27T02:53:13.017Z,94
2022-07-27T02:58:53.209Z,98
2022-07-27T03:04:34.408Z,100
2022-07-27T03:10:14.855Z,104
2022-07-27T03:15:56.205Z,110
2022-07-27T03:27:16.938Z,90
2022-07-27T03:44:18.062Z,96
2022-07-27T03:49:58.526Z,94
2022-07-27T04:17:11.641Z,90
2022-07-27T04:23:39.171Z,106
2022-07-27T04:29:24.344Z,94
2022-07-27T04:35:04.809Z,90
2022-07-27T04:40:45.360Z,90
2022-07-27T04:46:27.531Z,100
2022-07-27T04:57:49.010Z,94
2022-07-27T05:03:29.104Z,110
2022-07-27T05:09:11.895Z,106
2022-07-27T05:14:52.670Z,94
2022-07-27T05:20:37.043Z,98
2022-07-27T05:26:17.591Z,100
2022-07-27T05:37:47.222Z,104
2022-07-27T05:49:17.113Z,94
2022-07-27T05:54:57.337Z,92
2022-07-27T06:00:38.368Z,90
2022-07-27T06:06:19.914Z,106
2022-07-27T06:12:01.082Z,110
2022-07-27T06:17:42.294Z,110
2022-07-27T06:23:26.161Z,106
2022-07-27T06:29:13.860Z,108
2022-07-27T06:34:55.210Z,102
2022-07-27T06:40:35.636Z,102
2022-07-27T06:46:16.528Z,90
2022-07-27T06:51:57.290Z,90
2022-07-27T06:57:40.428Z,74
2022-07-27T07:03:21.610Z,68
2022-07-27T07:09:02.090Z,16
2022-07-27T07:14:42.849Z,86
2022-07-27T07:20:22.167Z,82
2022-07-27T07:26:01.516Z,74
2022-07-27T07:37:34.356Z,70
2022-07-27T07:43:14.798Z,98
2022-07-27T07:48:57.496Z,12
2022-07-27T07:54:38.355Z,0
2022-07-27T08:00:19.488Z,94
2022-07-27T08:06:01.787Z,26
2022-07-27T08:11:43.587Z,84
2022-07-27T08:17:22.908Z,94
2022-07-27T08:23:07.601Z,24
2022-07-27T08:28:51.271Z,26
2022-07-27T08:34:30.862Z,20
2022-07-27T08:40:50.437Z,20
2022-07-27T08:46:31.548Z,90
2022-07-27T08:52:11.859Z,24
2022-07-27T08:57:51.755Z,26
2022-07-27T09:03:32.813Z,16
2022-07-27T09:15:00.907Z,24
2022-07-27T09:20:43.305Z,64
2022-07-27T09:26:35.654Z,82
2022-07-27T09:32:22.350Z,72
2022-07-27T09:38:26.943Z,74
2022-07-27T09:44:54.904Z,20
2022-07-27T09:52:00.777Z,18
2022-07-27T10:06:07.381Z,16
2022-07-27T10:11:48.076Z,18
2022-07-27T10:17:28.422Z,18
2022-07-27T10:23:36.401Z,6
2022-07-27T10:29:37.029Z,0
2022-07-27T10:35:17.245Z,0
2022-07-27T10:46:59.547Z,0
2022-07-27T10:52:40.413Z,0
2022-07-27T10:58:20.746Z,2
2022-07-27T11:04:13.930Z,0
2022-07-27T11:10:28.562Z,0
2022-07-27T11:17:33.416Z,0
2022-07-27T11:23:55.477Z,0
2022-07-27T11:30:35.396Z,0
2022-07-27T11:42:24.645Z,50
2022-07-27T11:53:45.060Z,2
2022-07-27T11:59:25.857Z,18
2022-07-27T12:05:06.749Z,0
2022-07-27T12:16:42.948Z,76
2022-07-27T12:22:27.117Z,68
2022-07-27T12:28:10.086Z,10
2022-07-27T12:34:14.697Z,16
2022-07-27T12:40:18.728Z,74
2022-07-27T12:46:14.638Z,64
2022-07-27T12:52:06.377Z,58
2022-07-27T12:58:04.383Z,26
2022-07-27T13:10:04.937Z,0
2022-07-27T13:15:47.986Z,0
2022-07-27T13:21:29.883Z,22
2022-07-27T13:27:55.431Z,28
2022-07-27T13:33:40.938Z,20
2022-07-27T13:39:59.378Z,0
2022-07-27T13:51:25.680Z,0
2022-07-27T13:57:06.198Z,86
2022-07-27T14:02:47.785Z,102
2022-07-27T14:19:51.126Z,26
2022-07-27T14:25:31.334Z,32
2022-07-27T14:31:35.270Z,20
2022-07-27T14:37:16.766Z,18
2022-07-27T14:43:06.582Z,30
2022-07-27T14:49:08.315Z,16
2022-07-27T15:06:09.366Z,0
2022-07-27T15:17:43.837Z,0
2022-07-27T15:23:24.632Z,62
2022-07-27T15:29:04.590Z,92
2022-07-27T15:35:13.791Z,202
2022-07-27T15:52:15.369Z,94
2022-07-27T15:57:55.939Z,88
2022-07-27T16:03:38.480Z,92
2022-07-27T16:14:58.866Z,90
2022-07-27T16:20:39.028Z,80
2022-07-27T16:26:19.008Z,100
2022-07-27T16:37:39.393Z,80
2022-07-27T16:43:19.741Z,90
2022-07-27T16:49:03.341Z,68
2022-07-27T16:54:43.735Z,76
2022-07-27T17:00:24.004Z,86
2022-07-27T17:06:10.327Z,78
2022-07-27T17:16:53.048Z,110
2022-07-27T17:22:33.304Z,82
2022-07-27T17:28:13.373Z,86
2022-07-27T17:33:53.857Z,84
2022-07-27T17:50:54.461Z,90
2022-07-27T17:56:35.006Z,92
2022-07-27T18:02:15.885Z,86
2022-07-27T18:07:56.409Z,90
2022-07-27T18:13:40.449Z,88
2022-07-27T18:19:20.668Z,90
2022-07-27T18:25:01.277Z,90
2022-07-27T18:30:44.745Z,86
2022-07-27T18:36:25.222Z,86
2022-07-27T18:42:05.436Z,90
2022-07-27T18:47:53.853Z,82
2022-07-27T18:53:34.143Z,86
2022-07-27T19:04:57.376Z,72
2022-07-27T19:10:37.644Z,78
2022-07-27T19:16:17.864Z,72
2022-07-27T19:21:58.107Z,106
2022-07-27T19:39:10.707Z,78
2022-07-27T19:44:51.122Z,70
2022-07-27T19:50:31.304Z,70
2022-07-27T19:56:11.745Z,82
2022-07-27T20:01:52.600Z,106
2022-07-27T20:07:33.074Z,68
2022-07-27T20:24:33.272Z,74
2022-07-27T20:30:13.446Z,62
2022-07-27T20:35:54.020Z,78
2022-07-27T20:41:34.277Z,64
2022-07-27T20:47:14.579Z,70
2022-07-27T20:52:54.886Z,88
2022-07-27T20:58:35.142Z,90
2022-07-27T21:04:15.780Z,82
2022-07-27T21:10:10.383Z,70
2022-07-27T21:32:54.402Z,82
2022-07-27T21:44:18.782Z,86
2022-07-27T21:49:58.950Z,84
2022-07-27T21:55:39.075Z,66
2022-07-27T22:01:20.269Z,94
2022-07-27T22:07:00.503Z,104
2022-07-27T22:12:40.650Z,68
2022-07-27T22:18:21.028Z,64
2022-07-27T22:24:01.481Z,64
2022-07-27T22:29:41.624Z,76
2022-07-27T22:35:21.867Z,106
2022-07-27T22:41:02.226Z,66
2022-07-27T22:46:42.502Z,100
2022-07-27T22:58:02.871Z,100
2022-07-27T23:15:04.039Z,102
2022-07-27T23:20:44.375Z,106
2022-07-27T23:32:09.711Z,100
2022-07-27T23:37:50.638Z,92
2022-07-27T23:43:32.126Z,104
2022-07-27T23:49:13.300Z,98
2022-07-27T23:54:53.764Z,98
